Strona główna
METAR-TAF:

METAR-TAF

Lotnisko :

Port lotniczy Logroño-Agoncillo

Logroño, Hiszpania

Szerokość geograficzna: 42-27N, Długość geograficzna: 002-20W, wysokość: 353 m

Aktualna obserwacja pogody

Raport powstał 22 minut temu, godzina 05:30 UTC
Cisza
Temperatura 17°C
Wilgotność 88%
Ciśnienie 1015 hPa
Widzialność 10 km lub więcej
Zachmurzenie całkowite na wysokości 1500 ft

METAR: LELO 010530Z AUTO 00000KT 9999 OVC015 17/15 Q1015

czas: 07:52 (05:52 UTC)

Prognoza

Raport powstał 52 minut temu, godzina 05:00 UTC
Prognoza ważna od 01 godzina 06 UTC do 01 godzina 15 UTC
Wiatr 6 kt od wschód
Widzialność 10 km lub więcej
Zachmurzenie całkowite na wysokości 1300 ft
Stopniowe zmiany
od 01 godzina 08 UTC do 01 godzina 10 UTC
Rozproszone chmury na wysokości 1500 ft

TAF: LELO 010500Z 0106/0115 09006KT 9999 OVC013 BECMG 0108/0110 SCT015

Obserwacja i prognoza pogody dla ponad 4000 lotnisk (raport METAR i TAF).

Dostępne stacje oznaczono żółtymi i czerwonymi punktami na mapie.

Najedź kursorem aby zobaczyć nazwę stacji.

Kliknij aby zobaczyć obserwacje i prognozy pogody.

Aby zmienić mapę: kliknij na zielony przycisk z czarnym krzyżykiem, aby powiększyć; na zielony przycisk z myślnikiem, aby pomniejszyć; na zielone strzałki, aby przejść do map sąsiednich.


METAR-TAF: